Time;durP1;ratioP1;P1;durP2;ratioP2;P2;SDS_P1;SDS_P2;PMS_P1;PMS_P2;Temp;Humidity;BMP_temperature;BMP_pressure;BME280_temperature;BME280_humidity;BME280_pressure;Samples;Min_cycle;Max_cycle;Signal;HPM_P1;HPM_P2
2021/10/05 00:00:15;;;;;;;1.08;0.60;;;21.00;51.40;;;25.13;34.06;101284.19;5112700;28;20457;-12
2021/10/05 00:02:41;;;;;;;1.10;0.70;;;21.00;51.40;;;25.10;34.15;101287.94;5113075;28;20055;-12
2021/10/05 00:05:08;;;;;;;1.65;0.68;;;21.00;51.40;;;25.11;34.14;101292.34;5112767;28;20407;-12
2021/10/05 00:07:35;;;;;;;1.20;0.60;;;21.00;51.40;;;25.09;34.17;101290.72;5112797;28;20047;-12
2021/10/05 00:10:02;;;;;;;1.17;0.60;;;21.00;51.40;;;25.10;34.10;101290.59;5112571;28;20093;-12
2021/10/05 00:12:29;;;;;;;0.73;0.60;;;21.00;51.40;;;25.08;34.19;101287.19;5112838;28;20036;-12
2021/10/05 00:14:56;;;;;;;0.52;0.50;;;21.00;51.40;;;25.10;34.15;101279.91;5112642;28;20043;-12
2021/10/05 00:17:21;;;;;;;0.75;0.60;;;21.00;51.40;;;25.09;34.00;101283.56;5112847;28;20040;-12
2021/10/05 00:19:47;;;;;;;0.77;0.60;;;21.00;51.40;;;25.09;34.18;101288.91;5112795;28;20052;-12
2021/10/05 00:22:14;;;;;;;0.68;0.55;;;21.00;51.40;;;25.11;34.02;101289.66;5114130;28;20112;-12
2021/10/05 00:24:41;;;;;;;0.55;0.52;;;21.00;51.40;;;25.09;34.09;101285.38;5097736;28;20510;-12
2021/10/05 00:27:06;;;;;;;0.70;0.55;;;21.00;51.40;;;25.10;34.03;101285.25;5116054;28;20490;-12
2021/10/05 00:29:32;;;;;;;0.50;0.50;;;21.10;51.40;;;25.11;33.99;101278.94;5095436;28;20138;-12
2021/10/05 00:31:58;;;;;;;0.50;0.50;;;21.00;51.40;;;25.11;34.24;101275.44;5115950;28;20052;-12
2021/10/05 00:34:24;;;;;;;0.80;0.80;;;21.00;51.40;;;25.11;34.21;101280.78;5115849;28;20047;-12
2021/10/05 00:36:49;;;;;;;0.90;0.57;;;21.00;51.40;;;25.09;34.21;101263.97;5115773;28;20492;-12
2021/10/05 00:39:15;;;;;;;0.55;0.50;;;21.00;51.40;;;25.11;34.09;101270.94;5116158;28;20445;-12
2021/10/05 00:41:41;;;;;;;1.23;0.70;;;21.00;51.40;;;25.10;34.24;101271.03;5115865;28;20415;-12
2021/10/05 00:44:07;;;;;;;0.60;0.60;;;21.00;51.50;;;25.11;34.14;101278.09;5115858;28;20043;-12
2021/10/05 00:46:34;;;;;;;1.38;0.68;;;21.00;51.40;;;25.09;34.28;101275.53;5115913;28;20523;-12
2021/10/05 00:49:01;;;;;;;0.50;0.50;;;21.00;51.40;;;25.06;34.13;101261.50;5115741;28;20617;-12
2021/10/05 00:51:27;;;;;;;0.55;0.50;;;21.00;51.40;;;25.06;34.17;101265.06;5097810;28;20132;-12
2021/10/05 00:53:53;;;;;;;0.73;0.70;;;21.00;51.40;;;25.10;34.24;101276.38;5115572;28;20525;-12
2021/10/05 00:56:20;;;;;;;0.73;0.60;;;21.00;51.40;;;25.07;34.34;101268.56;5115470;28;20047;-12
2021/10/05 00:58:46;;;;;;;0.38;0.38;;;21.00;51.40;;;25.10;34.19;101273.72;5116139;28;20542;-12
2021/10/05 01:01:12;;;;;;;0.63;0.50;;;21.00;51.40;;;25.08;34.07;101255.09;5115675;28;20121;-12
2021/10/05 01:03:39;;;;;;;0.70;0.52;;;21.00;51.40;;;25.06;34.29;101253.47;5115482;28;20055;-12
2021/10/05 01:06:05;;;;;;;0.77;0.50;;;21.00;51.40;;;25.07;34.18;101253.38;5097017;28;20074;-12
2021/10/05 01:08:31;;;;;;;1.42;0.70;;;21.00;51.40;;;25.08;34.02;101246.22;5115342;28;20043;-12
2021/10/05 01:10:58;;;;;;;0.93;0.63;;;21.00;51.40;;;25.07;34.28;101240.00;5115309;28;20044;-12
2021/10/05 01:13:25;;;;;;;0.70;0.50;;;21.00;51.40;;;25.06;34.20;101234.75;5115251;28;20044;-12
2021/10/05 01:15:51;;;;;;;1.13;0.70;;;21.00;51.40;;;25.06;34.14;101230.28;5115248;28;20039;-12
2021/10/05 01:18:17;;;;;;;0.60;0.60;;;21.00;51.40;;;25.06;34.11;101230.28;5115592;28;20054;-12
2021/10/05 01:21:03;;;;;;;1.27;0.50;;;21.00;51.40;;;25.08;34.13;101232.84;5115636;28;20048;-12
2021/10/05 01:23:30;;;;;;;0.70;0.60;;;21.00;51.40;;;25.05;34.11;101222.34;5115470;28;20093;-12
2021/10/05 01:25:56;;;;;;;0.80;0.60;;;21.00;51.40;;;25.05;34.21;101215.19;5115051;28;20131;-12
2021/10/05 01:28:24;;;;;;;0.68;0.45;;;21.00;51.40;;;25.07;34.16;101221.25;5114938;28;20040;-12
2021/10/05 01:30:49;;;;;;;0.65;0.52;;;21.00;51.40;;;25.08;34.17;101219.47;5115278;28;20055;-12
2021/10/05 01:33:18;;;;;;;0.70;0.70;;;21.00;51.40;;;25.08;34.15;101224.81;5114958;28;20113;-12
2021/10/05 01:35:44;;;;;;;0.60;0.60;;;21.00;51.40;;;25.08;33.98;101208.75;5114838;28;20407;-12
2021/10/05 01:38:10;;;;;;;0.68;0.68;;;21.00;51.30;;;25.06;34.12;101200.84;5114762;28;20048;-12
2021/10/05 01:40:35;;;;;;;0.60;0.60;;;21.00;51.30;;;25.07;34.04;101202.53;5114678;28;20134;-12
2021/10/05 01:43:01;;;;;;;0.60;0.60;;;21.00;51.40;;;25.06;34.14;101197.28;5097184;28;20096;-12
2021/10/05 01:45:27;;;;;;;0.90;0.70;;;21.00;51.40;;;25.03;34.08;101193.03;5114811;28;20051;-12
2021/10/05 01:47:53;;;;;;;1.80;0.70;;;20.90;51.40;;;25.04;34.14;101191.22;5114412;28;20504;-12
2021/10/05 01:50:19;;;;;;;0.50;0.40;;;21.00;52.00;;;25.06;34.11;101190.16;5114916;28;20054;-12
2021/10/05 01:52:45;;;;;;;0.60;0.60;;;21.00;51.50;;;25.05;34.05;101192.94;5114979;28;20046;-12
2021/10/05 01:55:10;;;;;;;0.50;0.50;;;21.00;51.50;;;25.07;34.24;101191.84;5114933;28;20064;-11
2021/10/05 01:57:36;;;;;;;1.05;0.77;;;21.00;51.40;;;25.04;34.17;101183.19;5114478;28;20039;-12
2021/10/05 02:00:06;;;;;;;0.85;0.60;;;21.00;51.40;;;25.04;34.08;101176.03;5115202;28;20381;-12
2021/10/05 02:02:32;;;;;;;1.77;0.70;;;21.00;51.40;;;25.04;34.00;101183.19;5114740;28;20407;-12
2021/10/05 02:04:58;;;;;;;0.47;0.47;;;21.00;51.40;;;25.04;34.02;101178.72;5114620;28;20050;-12
2021/10/05 02:07:24;;;;;;;1.15;0.60;;;21.00;51.40;;;25.05;34.18;101180.41;5114335;28;20172;-12
2021/10/05 02:09:49;;;;;;;0.60;0.60;;;21.00;51.40;;;25.06;34.13;101181.25;5114342;28;20403;-12
2021/10/05 02:12:17;;;;;;;0.40;0.40;;;21.00;51.40;;;25.03;33.95;101178.81;5114858;28;20105;-12
2021/10/05 02:14:45;;;;;;;0.68;0.50;;;21.00;51.40;;;25.05;34.07;101182.22;5114147;28;20047;-12
2021/10/05 02:17:13;;;;;;;0.98;0.60;;;21.00;51.40;;;25.06;34.05;101178.56;5114066;28;20102;-12
2021/10/05 02:19:39;;;;;;;0.90;0.80;;;21.00;51.40;;;25.03;34.22;101168.97;5114233;28;20051;-12
2021/10/05 02:22:06;;;;;;;0.40;0.40;;;21.00;51.40;;;25.04;34.14;101175.16;5114411;28;20109;-12
2021/10/05 02:24:43;;;;;;;0.60;0.50;;;21.00;51.40;;;25.04;34.17;101161.78;5114018;28;20047;-12
2021/10/05 02:27:18;;;;;;;1.10;0.60;;;21.00;51.40;;;25.04;34.19;101161.78;5114009;28;20552;-12
2021/10/05 02:29:45;;;;;;;0.75;0.50;;;21.00;51.40;;;25.05;34.10;101158.16;5113900;28;20047;-12
2021/10/05 02:32:13;;;;;;;0.57;0.50;;;21.00;51.40;;;25.04;34.02;101151.97;5114055;28;20480;-12
2021/10/05 02:34:39;;;;;;;0.90;0.57;;;21.00;51.40;;;25.03;34.10;101149.41;5114188;28;20044;-12
2021/10/05 02:37:06;;;;;;;0.70;0.70;;;21.00;51.40;;;25.04;34.18;101154.63;5113931;28;20054;-12
2021/10/05 02:39:32;;;;;;;0.93;0.50;;;21.00;51.40;;;25.03;34.12;101152.91;5114429;28;20052;-12
2021/10/05 02:41:58;;;;;;;0.80;0.57;;;21.00;51.40;;;25.04;34.14;101149.28;5112455;28;20050;-12
2021/10/05 02:44:23;;;;;;;1.13;0.70;;;21.00;51.30;;;25.03;34.16;101147.56;5094894;28;20052;-10
2021/10/05 02:46:50;;;;;;;1.05;0.50;;;21.00;51.40;;;25.02;34.04;101143.16;5113777;28;20492;-10
2021/10/05 02:49:16;;;;;;;0.70;0.50;;;21.00;51.40;;;25.03;34.14;101138.69;5113755;28;20059;-10
2021/10/05 02:51:42;;;;;;;0.75;0.70;;;21.00;51.40;;;24.99;34.14;101132.69;5114075;28;20051;-10
2021/10/05 02:54:08;;;;;;;0.73;0.57;;;20.90;51.40;;;24.99;34.19;101126.50;5113644;28;20407;-10
2021/10/05 02:56:34;;;;;;;1.05;0.60;;;20.90;51.40;;;25.00;34.23;101126.38;5113694;28;20054;-10
2021/10/05 02:59:00;;;;;;;0.60;0.60;;;20.90;51.50;;;25.00;34.16;101121.03;5113561;28;20047;-10
2021/10/05 03:01:26;;;;;;;0.68;0.50;;;20.90;51.50;;;25.02;34.14;101119.09;5095317;28;20055;-10
2021/10/05 03:03:51;;;;;;;0.60;0.60;;;20.90;51.50;;;25.02;34.10;101129.78;5113590;28;20429;-10
2021/10/05 03:06:17;;;;;;;0.50;0.50;;;20.90;51.60;;;24.99;34.10;101122.00;5113380;28;20051;-10
2021/10/05 03:08:43;;;;;;;0.65;0.50;;;20.90;51.60;;;25.02;34.23;101116.41;5113952;28;20044;-10
2021/10/05 03:11:10;;;;;;;1.15;0.70;;;20.90;51.50;;;25.02;34.14;101115.56;5113606;28;20040;-10
2021/10/05 03:13:37;;;;;;;0.98;0.70;;;20.90;51.60;;;25.00;34.11;101104.13;5113443;28;20071;-10
2021/10/05 03:16:07;;;;;;;0.73;0.60;;;20.90;51.50;;;25.03;34.27;101106.59;5113242;28;20050;-9
2021/10/05 03:18:34;;;;;;;1.63;0.60;;;20.90;51.40;;;25.02;34.20;101100.38;5113464;28;20047;-10
2021/10/05 03:21:00;;;;;;;0.63;0.40;;;20.90;51.40;;;25.06;34.25;101100.97;5113190;28;20407;-10
2021/10/05 03:23:26;;;;;;;0.57;0.55;;;21.00;51.40;;;25.06;34.23;101095.63;5113219;28;20043;-9
2021/10/05 03:25:52;;;;;;;0.45;0.45;;;21.00;51.40;;;25.08;34.18;101102.59;5113632;28;20052;-10
2021/10/05 03:28:19;;;;;;;0.52;0.52;;;21.00;51.40;;;25.08;34.20;101089.22;5113257;28;20096;-10
2021/10/05 03:30:44;;;;;;;0.50;0.50;;;21.00;51.30;;;25.10;33.99;101081.91;5113763;28;20392;-10
2021/10/05 03:33:10;;;;;;;1.23;0.55;;;21.00;51.30;;;25.10;34.19;101075.72;5113154;28;20069;-12
2021/10/05 03:35:36;;;;;;;0.45;0.40;;;21.00;51.20;;;25.10;34.06;101071.22;5113419;28;20380;-12
2021/10/05 03:38:02;;;;;;;0.75;0.52;;;21.10;51.30;;;25.12;34.18;101076.44;5113620;28;20040;-12
2021/10/05 03:40:28;;;;;;;0.93;0.50;;;21.00;51.10;;;25.17;34.05;101082.28;5113007;28;20124;-12
2021/10/05 03:42:54;;;;;;;1.60;0.60;;;21.10;51.10;;;25.19;34.11;101072.31;5113143;28;20048;-13
2021/10/05 03:45:20;;;;;;;0.90;0.55;;;21.10;51.00;;;25.21;34.06;101073.06;5112993;28;20047;-12
2021/10/05 03:47:46;;;;;;;0.93;0.50;;;21.10;51.00;;;25.19;33.96;101061.63;5112853;28;20039;-12
2021/10/05 03:50:13;;;;;;;0.63;0.55;;;21.10;50.90;;;25.21;33.87;101056.16;5112792;28;20051;-12
2021/10/05 03:52:38;;;;;;;0.75;0.50;;;21.20;51.00;;;25.24;34.02;101061.28;5112810;28;20403;-12
2021/10/05 03:55:07;;;;;;;0.70;0.55;;;21.20;50.90;;;25.24;33.85;101062.16;5112855;28;20044;-12
2021/10/05 03:57:33;;;;;;;0.93;0.60;;;21.20;50.80;;;25.26;33.98;101059.31;5114727;28;20126;-12
2021/10/05 03:59:59;;;;;;;0.80;0.50;;;21.20;50.80;;;25.26;33.92;101057.53;5116449;28;20452;-12
2021/10/05 04:02:25;;;;;;;0.93;0.70;;;21.20;50.80;;;25.27;33.81;101053.88;5116795;28;20100;-12
2021/10/05 04:04:54;;;;;;;0.60;0.50;;;21.20;50.90;;;25.27;33.70;101051.22;5116414;28;20414;-11
2021/10/05 04:07:19;;;;;;;0.55;0.50;;;21.10;50.90;;;25.27;33.86;101053.88;5116252;28;20134;-12
2021/10/05 04:09:45;;;;;;;0.75;0.50;;;21.10;50.90;;;25.28;33.75;101042.22;5116404;28;20112;-12
2021/10/05 04:12:11;;;;;;;0.73;0.60;;;21.10;50.90;;;25.28;33.86;101044.06;5116229;28;20105;-11
2021/10/05 04:14:37;;;;;;;0.68;0.60;;;21.10;51.00;;;25.29;33.79;101040.38;5116539;28;20048;-12
2021/10/05 04:17:03;;;;;;;0.60;0.50;;;21.10;51.00;;;25.28;33.81;101036.88;5116228;28;20061;-12
2021/10/05 04:19:29;;;;;;;0.60;0.52;;;21.10;50.90;;;25.26;33.76;101035.22;5116017;28;20070;-11
2021/10/05 04:21:55;;;;;;;0.50;0.50;;;21.20;51.00;;;25.28;33.84;101031.50;5115937;28;20082;-12
2021/10/05 04:24:21;;;;;;;0.55;0.50;;;21.10;50.90;;;25.26;33.66;101022.75;5115935;28;20036;-12
2021/10/05 04:26:47;;;;;;;0.52;0.52;;;21.20;50.80;;;25.27;33.79;101021.78;5116138;28;20384;-12
2021/10/05 04:29:13;;;;;;;0.50;0.50;;;21.20;50.80;;;25.28;33.72;101025.31;5115846;28;20050;-12
2021/10/05 04:31:41;;;;;;;0.60;0.60;;;21.20;50.80;;;25.29;33.72;101018.97;5116328;28;20553;-12
2021/10/05 04:34:06;;;;;;;0.50;0.50;;;21.20;50.80;;;25.29;33.86;101010.94;5116411;28;20067;-12
2021/10/05 04:36:32;;;;;;;0.50;0.50;;;21.20;50.90;;;25.27;33.84;101012.91;5115946;28;20101;-12
2021/10/05 04:38:58;;;;;;;1.20;0.60;;;21.10;51.00;;;25.27;33.68;101016.41;5115682;28;20501;-12
2021/10/05 04:41:24;;;;;;;0.57;0.50;;;21.20;50.90;;;25.25;33.38;101012.13;5116438;28;20475;-12
2021/10/05 04:43:50;;;;;;;0.40;0.40;;;21.20;50.60;;;25.26;33.79;101012.06;5115665;28;20077;-12
2021/10/05 04:46:15;;;;;;;0.50;0.50;;;21.30;50.60;;;25.27;33.61;101012.91;5113631;28;20101;-12
2021/10/05 04:48:41;;;;;;;0.77;0.60;;;21.30;50.50;;;25.25;33.78;101002.28;5115453;28;20048;-12
2021/10/05 04:51:07;;;;;;;0.50;0.50;;;21.30;50.50;;;25.26;33.79;101012.06;5115531;28;20097;-12
2021/10/05 04:53:33;;;;;;;0.40;0.40;;;21.20;50.60;;;25.25;33.73;101012.97;5116270;28;20051;-12
2021/10/05 04:55:58;;;;;;;0.77;0.50;;;21.20;50.70;;;25.21;33.83;101000.81;5097289;28;20063;-12
2021/10/05 04:58:24;;;;;;;0.60;0.60;;;21.20;50.80;;;25.22;33.79;100999.84;5115404;28;20047;-12
2021/10/05 05:00:50;;;;;;;0.50;0.50;;;21.20;50.90;;;25.19;33.74;100997.41;5115546;28;20063;-12
2021/10/05 05:03:16;;;;;;;0.60;0.60;;;21.10;51.00;;;25.20;33.71;100995.59;5115516;28;20043;-12
2021/10/05 05:05:42;;;;;;;0.52;0.52;;;21.10;51.00;;;25.20;33.72;100998.28;5115744;28;20883;-12
2021/10/05 05:08:08;;;;;;;0.52;0.52;;;21.10;51.10;;;25.15;33.98;100993.25;5096525;28;20039;-11
2021/10/05 05:10:33;;;;;;;0.77;0.55;;;21.10;51.20;;;25.15;33.87;100980.72;5115386;28;20081;-12
2021/10/05 05:12:59;;;;;;;0.82;0.82;;;21.00;51.10;;;25.16;33.76;100984.28;5115298;28;20059;-12
2021/10/05 05:15:25;;;;;;;0.95;0.60;;;21.00;51.10;;;25.14;33.76;100987.06;5115321;28;20054;-12
2021/10/05 05:17:52;;;;;;;0.60;0.60;;;21.00;51.10;;;25.12;33.84;100975.63;5115483;28;20055;-12
2021/10/05 05:20:17;;;;;;;0.43;0.40;;;21.00;51.10;;;25.13;33.82;100982.69;5115198;28;20395;-12
2021/10/05 05:22:45;;;;;;;0.93;0.68;;;21.10;51.10;;;25.13;33.97;100976.47;5097047;28;20040;-12
2021/10/05 05:25:12;;;;;;;0.50;0.50;;;21.00;51.20;;;25.11;33.86;100973.94;5115056;28;20048;-12
2021/10/05 05:27:37;;;;;;;0.82;0.70;;;21.00;51.20;;;25.11;33.92;100970.41;5115180;28;20130;-12
2021/10/05 05:30:04;;;;;;;0.50;0.50;;;21.00;51.30;;;25.11;33.82;100970.41;5114816;28;20040;-12
2021/10/05 05:32:30;;;;;;;1.70;0.70;;;20.90;51.30;;;25.10;33.96;100964.19;5114870;28;20871;-12
2021/10/05 05:34:56;;;;;;;0.63;0.50;;;20.90;51.30;;;25.12;33.90;100970.25;5114876;28;20043;-11
2021/10/05 05:37:24;;;;;;;0.40;0.40;;;20.90;51.30;;;25.12;33.87;100967.59;5114952;28;20051;-12
2021/10/05 05:39:50;;;;;;;0.60;0.60;;;20.90;51.30;;;25.12;33.90;100961.38;5114876;28;20051;-12
2021/10/05 05:42:16;;;;;;;1.27;0.60;;;20.90;51.30;;;25.11;34.04;100967.72;5114750;28;20048;-12
2021/10/05 05:44:42;;;;;;;0.73;0.47;;;21.00;51.30;;;25.11;33.89;100959.72;5114818;28;20086;-12
2021/10/05 05:47:08;;;;;;;0.85;0.68;;;21.00;51.10;;;25.10;33.91;100958.84;5115227;28;20456;-12
2021/10/05 05:49:33;;;;;;;0.60;0.57;;;21.10;51.50;;;25.13;33.89;100960.44;5114877;28;20075;-12
2021/10/05 05:51:59;;;;;;;0.63;0.50;;;21.10;50.90;;;25.14;33.80;100956.75;5114701;28;20050;-12
2021/10/05 05:54:25;;;;;;;1.05;0.63;;;21.10;50.90;;;25.16;33.92;100960.19;5114856;28;20165;-12
2021/10/05 05:56:51;;;;;;;1.38;0.57;;;21.10;51.00;;;25.17;33.92;100958.38;5114414;28;20043;-13
2021/10/05 05:59:17;;;;;;;0.50;0.50;;;21.10;51.00;;;25.15;33.96;100953.97;5114476;28;20056;-12
2021/10/05 06:01:43;;;;;;;0.80;0.50;;;21.00;51.00;;;25.17;33.85;100953.00;5114706;28;20070;-12
2021/10/05 06:04:08;;;;;;;0.40;0.40;;;21.10;51.00;;;25.17;33.78;100953.00;5114818;28;20120;-12
2021/10/05 06:06:34;;;;;;;1.27;0.55;;;21.10;51.00;;;25.18;33.80;100950.22;5114405;28;20043;-12
2021/10/05 06:09:03;;;;;;;0.85;0.73;;;21.10;51.00;;;25.18;33.90;100954.72;5114930;28;20073;-12
2021/10/05 06:11:32;;;;;;;0.50;0.50;;;21.10;51.00;;;25.19;34.04;100956.41;5114431;28;20403;-12
2021/10/05 06:13:57;;;;;;;0.68;0.60;;;21.00;51.00;;;25.20;33.88;100960.81;5114771;28;20086;-12
2021/10/05 06:16:24;;;;;;;0.40;0.40;;;21.10;51.10;;;25.19;33.79;100956.41;5114189;28;20073;-12
2021/10/05 06:18:50;;;;;;;0.60;0.57;;;21.10;51.00;;;25.18;33.81;100950.22;5113675;28;20496;-12
2021/10/05 06:21:16;;;;;;;0.50;0.50;;;21.00;51.00;;;25.20;33.88;100947.44;5113984;28;20040;-12
2021/10/05 06:23:41;;;;;;;0.38;0.32;;;21.10;51.00;;;25.22;33.81;100950.81;5114096;28;20047;-12
2021/10/05 06:26:08;;;;;;;0.63;0.55;;;21.00;51.00;;;25.20;33.86;100952.78;5114474;28;20471;-12
2021/10/05 06:28:34;;;;;;;0.50;0.50;;;21.00;51.00;;;25.22;33.95;100956.19;5113897;28;20407;-12
2021/10/05 06:31:01;;;;;;;0.50;0.40;;;21.00;50.90;;;25.22;33.80;100956.19;5114211;28;20188;-12
2021/10/05 06:33:27;;;;;;;0.47;0.45;;;21.10;50.90;;;25.20;33.87;100956.28;5114368;28;20050;-12
2021/10/05 06:35:53;;;;;;;0.80;0.50;;;21.10;51.00;;;25.22;33.91;100965.03;5114472;28;20054;-12
2021/10/05 06:38:19;;;;;;;0.68;0.50;;;21.10;50.90;;;25.22;33.64;100962.38;5113951;28;20044;-12
2021/10/05 06:40:45;;;;;;;0.57;0.57;;;21.10;50.90;;;25.26;33.76;100954.94;5113833;28;20082;-12
2021/10/05 06:43:12;;;;;;;0.40;0.40;;;21.10;50.90;;;25.25;33.76;100950.59;5113800;28;20094;-12
2021/10/05 06:45:38;;;;;;;0.60;0.57;;;21.10;50.80;;;25.25;33.80;100955.94;5095496;28;20047;-12
2021/10/05 06:48:05;;;;;;;0.50;0.50;;;21.20;50.80;;;25.28;33.82;100958.41;5113560;28;20483;-12
2021/10/05 06:50:31;;;;;;;0.57;0.57;;;21.20;50.80;;;25.25;33.67;100935.38;5114063;28;20078;-12
2021/10/05 06:52:57;;;;;;;0.40;0.40;;;21.20;50.70;;;25.25;33.65;100930.03;5114015;28;20528;-12
2021/10/05 06:55:23;;;;;;;0.40;0.40;;;21.20;50.70;;;25.27;33.82;100938.81;5114005;28;20044;-12
2021/10/05 06:57:49;;;;;;;0.82;0.50;;;21.20;50.70;;;25.28;33.73;100934.31;5113554;28;20135;-12
2021/10/05 07:00:15;;;;;;;0.68;0.63;;;21.20;50.50;;;25.31;33.74;100934.94;5113434;28;20043;-12
2021/10/05 07:02:51;;;;;;;1.17;0.77;;;21.30;50.40;;;25.28;33.81;100929.81;5113544;28;20044;-12
2021/10/05 07:05:20;;;;;;;0.40;0.40;;;21.30;50.30;;;25.31;33.73;100928.72;5113854;28;20047;-12
2021/10/05 07:07:49;;;;;;;0.68;0.60;;;21.30;50.30;;;25.28;33.55;100923.63;5113426;28;20081;-12
2021/10/05 07:10:19;;;;;;;0.50;0.50;;;21.30;50.60;;;25.32;33.61;100930.41;5113301;28;20073;-12
2021/10/05 07:12:45;;;;;;;0.65;0.60;;;21.30;50.60;;;25.31;33.62;100926.06;5113645;28;20480;-12
2021/10/05 07:15:12;;;;;;;0.57;0.57;;;21.20;50.50;;;25.29;33.55;100928.84;5113362;28;20042;-12
2021/10/05 07:17:38;;;;;;;0.65;0.60;;;21.20;50.70;;;25.30;33.74;100925.19;5113236;28;20177;-12
2021/10/05 07:20:06;;;;;;;0.68;0.50;;;21.10;50.80;;;25.28;33.63;100921.78;5113961;28;20043;-12
2021/10/05 07:22:32;;;;;;;0.70;0.57;;;21.10;50.80;;;25.30;33.69;100919.00;5113167;28;20044;-12
2021/10/05 07:24:58;;;;;;;0.70;0.65;;;21.10;50.80;;;25.29;33.67;100917.28;5113308;28;20108;-12
2021/10/05 07:27:25;;;;;;;0.55;0.55;;;21.20;50.80;;;25.29;33.41;100914.59;5113589;28;20056;-12
2021/10/05 07:29:51;;;;;;;0.93;0.63;;;21.20;50.70;;;25.29;33.62;100910.13;5113074;28;20054;-12
2021/10/05 07:32:17;;;;;;;0.93;0.50;;;21.30;50.60;;;25.30;33.58;100905.59;5112925;28;20044;-12
2021/10/05 07:34:43;;;;;;;0.77;0.60;;;21.30;50.40;;;25.32;33.59;100901.81;5113005;28;20071;-12
2021/10/05 07:37:10;;;;;;;1.00;0.50;;;21.30;50.20;;;25.30;33.63;100900.25;5113083;28;20048;-12
2021/10/05 07:39:36;;;;;;;1.25;0.95;;;21.30;50.40;;;25.31;33.56;100899.28;5112829;28;20088;-12
2021/10/05 07:42:02;;;;;;;0.55;0.55;;;21.30;50.90;;;25.30;33.70;100898.41;5113276;28;20074;-12
2021/10/05 07:44:30;;;;;;;1.38;0.65;;;21.30;50.30;;;25.31;33.55;100905.50;5112887;28;20055;-12
2021/10/05 07:46:58;;;;;;;0.70;0.60;;;21.30;50.20;;;25.31;33.56;100888.59;5111230;28;20039;-12
2021/10/05 07:49:25;;;;;;;1.85;0.63;;;21.30;50.40;;;25.31;33.55;100893.94;5112746;28;20058;-12
2021/10/05 07:51:51;;;;;;;2.85;0.80;;;21.30;50.50;;;25.30;33.61;100881.53;5112766;28;20411;-12
2021/10/05 07:54:17;;;;;;;2.53;0.70;;;21.20;50.50;;;25.31;33.62;100885.91;5112936;28;20403;-12
2021/10/05 07:56:42;;;;;;;2.25;0.90;;;21.20;50.50;;;25.30;33.50;100879.69;5113175;28;20047;-12
2021/10/05 07:59:09;;;;;;;1.88;0.70;;;21.20;50.60;;;25.27;33.57;100874.56;5112742;28;20412;-12
2021/10/05 08:01:37;;;;;;;3.10;0.80;;;21.20;50.50;;;25.30;33.72;100874.34;5112818;28;20055;-12
2021/10/05 08:04:04;;;;;;;4.22;0.88;;;21.20;50.60;;;25.29;33.51;100867.31;5113043;28;20055;-12
2021/10/05 08:06:30;;;;;;;2.15;1.10;;;21.20;50.60;;;25.29;33.58;100869.97;5112690;28;20100;-12
2021/10/05 08:08:56;;;;;;;2.15;0.85;;;21.20;50.60;;;25.29;33.59;100874.47;5094145;28;20122;-12
2021/10/05 08:11:23;;;;;;;2.70;0.80;;;21.20;50.70;;;25.29;33.54;100866.44;5112944;28;20040;-12
2021/10/05 08:13:50;;;;;;;3.13;1.08;;;21.20;50.70;;;25.29;33.63;100863.75;5112521;28;20050;-12
2021/10/05 08:16:19;;;;;;;2.80;1.15;;;21.20;50.50;;;25.30;33.56;100862.78;5112601;28;20054;-12
2021/10/05 08:18:46;;;;;;;2.88;0.80;;;21.20;50.50;;;25.29;33.61;100856.59;5112448;28;20062;-12
2021/10/05 08:21:16;;;;;;;2.78;1.02;;;21.30;50.40;;;25.27;33.57;100850.50;5112677;28;20406;-12
2021/10/05 08:23:45;;;;;;;3.40;0.80;;;21.40;50.20;;;25.28;33.60;100852.22;5112669;28;20136;-12
2021/10/05 08:26:11;;;;;;;4.50;1.23;;;21.30;50.20;;;25.29;33.51;100840.53;5112413;28;20040;-12
2021/10/05 08:28:37;;;;;;;2.58;0.68;;;21.30;50.30;;;25.29;33.57;100839.66;5112548;28;20039;-12
2021/10/05 08:31:02;;;;;;;1.00;0.90;;;21.30;50.20;;;25.29;33.53;100831.63;5112491;28;20054;-12
2021/10/05 08:33:28;;;;;;;5.60;1.20;;;21.30;50.20;;;25.29;33.59;100835.19;5112411;28;20131;-12
2021/10/05 08:35:54;;;;;;;2.42;0.90;;;21.30;50.40;;;25.30;33.61;100833.34;5112580;28;20043;-12
2021/10/05 08:38:20;;;;;;;2.22;1.00;;;21.30;50.30;;;25.29;33.67;100820.94;5112208;28;20039;-12
2021/10/05 08:40:45;;;;;;;2.55;1.00;;;21.30;50.30;;;25.28;33.44;100821.94;5093972;28;20052;-12
2021/10/05 08:43:11;;;;;;;3.58;0.93;;;21.30;50.80;;;25.30;33.41;100822.66;5113620;28;20130;-12
2021/10/05 08:45:37;;;;;;;2.40;0.82;;;21.20;50.30;;;25.29;33.63;100818.25;5097443;28;20576;-12
2021/10/05 08:48:03;;;;;;;4.25;0.90;;;21.20;50.90;;;25.30;33.54;100823.47;5115660;28;20153;-12
2021/10/05 08:50:29;;;;;;;3.88;1.02;;;21.20;50.40;;;25.29;33.49;100812.91;5115427;28;20044;-12
2021/10/05 08:52:55;;;;;;;5.28;1.10;;;21.20;50.50;;;25.29;33.66;100811.09;5115650;28;20122;-12
2021/10/05 08:55:21;;;;;;;6.00;1.20;;;21.20;50.50;;;25.31;33.35;100805.63;5116162;28;20050;-12
2021/10/05 08:57:49;;;;;;;3.63;1.33;;;21.20;50.50;;;25.28;33.49;100801.34;5115665;28;20101;-12
2021/10/05 09:00:16;;;;;;;3.05;1.20;;;21.20;50.50;;;25.27;33.48;100794.28;5115351;28;20054;-12
2021/10/05 09:02:54;;;;;;;5.13;1.17;;;21.20;50.50;;;25.29;33.47;100794.16;5115475;28;20060;-12
2021/10/05 09:05:22;;;;;;;4.75;1.27;;;21.30;50.40;;;25.30;33.36;100794.03;5115365;28;20065;-12
2021/10/05 09:07:52;;;;;;;7.60;1.45;;;21.30;50.40;;;25.30;33.55;100787.84;5115903;28;20059;-12
2021/10/05 09:10:23;;;;;;;4.97;1.10;;;21.30;50.30;;;25.28;33.60;100782.63;5115347;28;20054;-12
2021/10/05 09:12:50;;;;;;;5.82;1.58;;;21.30;50.30;;;25.31;33.44;100786.88;5115631;28;20046;-12
2021/10/05 09:15:19;;;;;;;3.85;1.15;;;21.30;50.20;;;25.28;33.54;100776.44;5115126;28;20112;-12
2021/10/05 09:17:57;;;;;;;3.78;1.00;;;21.30;50.20;;;25.27;33.44;100783.59;5115488;28;20055;-12
2021/10/05 09:20:30;;;;;;;3.53;1.30;;;21.40;50.10;;;25.30;33.46;100779.81;5115271;28;20043;-12
2021/10/05 09:23:02;;;;;;;4.53;1.23;;;21.40;50.10;;;25.32;33.62;100785.91;5115181;28;20055;-12
2021/10/05 09:25:39;;;;;;;3.20;1.30;;;21.40;50.00;;;25.30;33.49;100780.66;5115122;28;20051;-11
2021/10/05 09:28:22;;;;;;;2.25;0.98;;;21.40;50.10;;;25.30;33.60;100782.50;5115193;28;20051;-12
2021/10/05 09:31:05;;;;;;;3.85;1.88;;;21.30;50.20;;;25.32;33.70;100777.88;5114848;28;20109;-15
2021/10/05 09:33:33;;;;;;;6.80;1.80;;;21.30;50.20;;;25.31;33.53;100776.19;5115202;28;20134;-12
2021/10/05 09:35:59;;;;;;;6.55;1.45;;;21.30;50.20;;;25.30;33.55;100766.44;5114948;28;20131;-12
2021/10/05 09:38:27;;;;;;;6.28;2.00;;;21.30;50.20;;;25.32;33.57;100770.69;5115065;28;20051;-12
2021/10/05 09:41:09;;;;;;;5.95;1.20;;;21.40;50.10;;;25.32;33.55;100768.00;5115177;28;20044;-12
2021/10/05 09:43:36;;;;;;;6.30;1.55;;;21.40;50.00;;;25.35;33.50;100771.44;5115249;28;20047;-12
2021/10/05 09:46:10;;;;;;;5.85;1.65;;;21.40;50.00;;;25.32;33.49;100759.97;5114815;28;20131;-12
2021/10/05 09:48:37;;;;;;;5.80;1.45;;;21.40;50.20;;;25.35;33.41;100766.06;5114927;28;20456;-12
2021/10/05 09:51:23;;;;;;;7.50;1.13;;;21.40;50.10;;;25.34;33.58;100765.19;5096507;28;20058;-12
2021/10/05 09:53:50;;;;;;;3.63;1.55;;;21.40;50.00;;;25.33;33.45;100759.00;5114153;28;20047;-12
2021/10/05 09:56:16;;;;;;;5.03;1.45;;;21.40;50.10;;;25.35;33.38;100763.41;5114004;28;20079;-12
2021/10/05 09:58:42;;;;;;;8.40;1.75;;;21.30;50.10;;;25.31;33.44;100763.66;5114772;28;20113;-12
2021/10/05 10:01:09;;;;;;;4.95;1.27;;;21.30;50.20;;;25.32;33.46;100751.94;5114911;28;20043;-12
2021/10/05 10:03:37;;;;;;;4.13;1.73;;;21.30;50.20;;;25.34;33.52;100762.53;5114335;28;20453;-12
2021/10/05 10:06:04;;;;;;;2.75;1.52;;;21.30;50.30;;;25.32;33.54;100753.78;5096257;28;20043;-12
2021/10/05 10:08:34;;;;;;;4.70;1.45;;;21.30;50.10;;;25.30;33.51;100753.91;5114838;28;20051;-12
2021/10/05 10:11:00;;;;;;;4.63;1.33;;;21.30;50.20;;;25.33;33.39;100759.00;5093418;28;20048;-12